San Lorenzo, CA

9:49 PM PDT on June 29, 2015 (GMT -0700)
KCASANLO2 | | Change Station
CLOSE
Current Station
Personal Weather Station
Location: San Lorenzo, CA
Elevation: 13 ft
Nearby Weather Stations

Elev 13 ft 37.67 °N, 122.14 °W | Updated 9 minutes ago

Clear
Clear
64.0 °F
Feels Like 64.0 °F
N
1.0
Wind Variable Wind from WNW
Gusts 10.0 mph

Today
High -- | Low -- °F
--% Chance of Precip.
Yesterday
High -- | Low -- °F
Precip. -- in
5:49 AM 8:34 PM
Waxing Gibbous, 96% visible
Pressure 29.94 in
Visibility 10.0 miles
Clouds Clear
Dew Point 59 °F
Humidity 85%
Rainfall 0.00 in
Snow Depth Not available.
UV 0 out of 12
Pollen 4.90 out of 12
Air Quality Not available.
Flu Activity Sporadic
METAR KSQL 300430Z AUTO 32005KT 10SM CLR 19/12 A2994 RMK AO2

More Conditions Fewer Conditions

Pressure 29.94 in
Visibility 10.0 miles
Clouds Clear
Dew Point 59 °F
Humidity 85%
Rainfall 0.00 in
Snow Depth Not available.
UV 0 out of 12
Pollen 4.90 out of 12
Air Quality Not available.
Flu Activity Sporadic
METAR KSQL 300430Z AUTO 32005KT 10SM CLR 19/12 A2994 RMK AO2

More Conditions Fewer Conditions

10-Day Weather Forecast

×

Almanac

Astronomy

Jun. 29, 2015 Rise Set
Actual Time
Civil Twilight
Nautical Twilight
Astronomical Twilight
Moon
Length of Visible Light
Length of Day
Tomorrow will be .
, % of the Moon is Illuminated

Today's Extremes

State Highs State Lows

Community

WunderPhotos

Upload Photos

1,833,965 photos uploaded!

WunderBlogs® & News

Nearby

Air Quality

  Air Quality AQ Index Pollutant
Not available.

Snow Depth

Station Depth Elevation

Earthquake Activity

City Distance Mag. Time & Date
Minimum magnitude displayed is 2.5.

Coastal Water Temperatures

Place Temperature

Stations

Nearby Weather Stations

Station Location Temp. Windchill Dew Point Humidity Wind Precip. Elev Updated Type